メインページ
METAR-TAF:

METAR-TAF

空港 :

Adrian, ミシガン州, アメリカ合衆国

緯度: 41-52-04N, 経度: 084-04-46W, 海抜: 244m

現時点の気象観測

当レポートは33分前の21:53(UTC)に作成
西/北西の風 10kt
気温 25°C
湿度 39%
気圧 1016 hPa
視程: 16.1km
高度7500ftの雲はほとんどない
高度11000ftの雲は散在している

METAR: KADG 232153Z AUTO 29010KT 10SM FEW075 SCT110 25/10 A3001 RMK AO2 LTG DSNT N SLP162 T02500100

時間: 18:26 (22:26 UTC)


TAF: 見つかりません

4,000以上の空港の気象観測と天気予報(METAR報とTAF報)

利用可能な観測所は地図上に黄色い丸と赤い丸で示す。

丸の上にカーソルを重ねると観測所名を参照できる。

次にクリックすると気象観測と天気予報を参照できる。

マップの切り替え:黒色「×」印の緑ボタンをクリックして拡大、「-」印の緑ボタンをクリックして縮小、緑色の三角印をクリックして隣りの地図に切り替え


METAR-TAF: